Dagmar Aaen — DIXX — position and weather

sailwx.info

Track history (hours):
 
Tides and Currents Weather Stations Pressure Air Temp Water Temp Dewpoint Dewpoint Depression Visibility Wind Speed Wind Dir Waves Ship Positions

Dagmar Aaen

Last reported at 2016-Aug-16 09:10 UTC. Time now 2017-Mar-26 14:59 UTC.
Position N 54°49' E 010°13'.
Warning: this ship's position is months out of date.

Length 24 m; beam 4.8 m; draft 2.5 m.

Type: Sailing vessel. MMSI: 211249810.

Date/timePositionNaut miles runAvg speedWind from/ knotsBaromVisibWave heightAir tempDewpointWater temp
2016-Aug-16 09:10N 54°49' E 010°13'5 5.9
2016-Aug-16 08:23N 54°48' E 010°21'5 5.6
2016-Aug-16 07:33N 54°47' E 010°29'7 2.3
2016-Aug-16 04:33N 54°45' E 010°40'0 0.0
2016-Aug-16 03:33N 54°45' E 010°40'0 0.0
2016-Aug-16 02:33N 54°45' E 010°40'0 0.0
2016-Aug-16 01:33N 54°45' E 010°40'0 0.0
2016-Aug-16 00:33N 54°45' E 010°40'0 0.0
2016-Aug-15 23:33N 54°45' E 010°40'0 0.0
2016-Aug-15 22:33N 54°45' E 010°40'0 0.0
2016-Aug-15 21:33N 54°45' E 010°40'0 0.0
2016-Aug-15 20:33N 54°45' E 010°40'0 0.3
2016-Aug-15 19:34N 54°45' E 010°40'5 4.7
2016-Aug-15 18:33N 54°42' E 010°45'7 6.8
2016-Aug-15 17:33N 54°39' E 010°56'7 6.6
2016-Aug-15 16:33N 54°36' E 011°06'6 6.0
2016-Aug-15 15:33N 54°33' E 011°15'6 6.1
2016-Aug-15 14:33N 54°30' E 011°24'6 5.7
2016-Aug-15 13:33N 54°26' E 011°31'5 4.9
2016-Aug-15 12:33N 54°23' E 011°38'4 4.4
2016-Aug-15 11:33N 54°20' E 011°44'5 4.6
2016-Aug-15 10:33N 54°17' E 011°50'5 5.0
2016-Aug-15 09:33N 54°15' E 011°58'6 5.2
2016-Aug-15 08:28N 54°11' E 012°05'5 5.6
2016-Aug-15 07:33N 54°06' E 012°06'1 0.4
2016-Aug-15 04:26N 54°06' E 012°08'0 0.0
2016-Aug-15 03:26N 54°06' E 012°08'0 0.0
2016-Aug-15 02:29N 54°06' E 012°08'0 0.0
2016-Aug-15 01:32N 54°06' E 012°08'0 0.0
2016-Aug-14 22:32N 54°06' E 012°08'0 0.0
2016-Aug-14 21:29N 54°06' E 012°08'0 0.0
2016-Aug-14 20:29N 54°06' E 012°08'0 0.0
2016-Aug-14 19:17N 54°06' E 012°08'0 0.1
2016-Aug-14 16:33N 54°06' E 012°08'1 1.0
2016-Aug-14 15:33N 54°06' E 012°07'1 0.8
2016-Aug-14 14:32N 54°06' E 012°08'0 0.0
2016-Aug-14 13:29N 54°06' E 012°08'0 0.0
2016-Aug-14 11:11N 54°06' E 012°08'0 0.0
2016-Aug-14 10:32N 54°06' E 012°08'0 0.0
2016-Aug-14 08:23N 54°06' E 012°08'0 0.0
2016-Aug-14 07:11N 54°06' E 012°08'0 0.0
2016-Aug-14 04:32N 54°06' E 012°08'0 0.0
2016-Aug-14 01:17N 54°06' E 012°08'0 0.0
2016-Aug-13 23:05N 54°06' E 012°08'0 0.0
2016-Aug-13 22:20N 54°06' E 012°08'0 0.0
2016-Aug-13 20:14N 54°06' E 012°08'0 0.0
2016-Aug-13 19:32N 54°06' E 012°08'0 0.0
2016-Aug-13 18:29N 54°06' E 012°08'0 0.0
2016-Aug-13 17:32N 54°06' E 012°08'0 0.0
2016-Aug-13 13:32N 54°06' E 012°08'0 0.0
2016-Aug-13 12:23N 54°06' E 012°08'0 0.0
2016-Aug-13 09:29N 54°06' E 012°08'0 0.0
2016-Aug-13 08:17N 54°06' E 012°08'0 0.0
2016-Aug-13 06:14N 54°06' E 012°08'0 0.0
2016-Aug-13 05:26N 54°06' E 012°08'0 0.0
2016-Aug-13 03:08N 54°06' E 012°08'0 0.0
2016-Aug-13 02:26N 54°06' E 012°08'0 0.0
2016-Aug-13 00:17N 54°06' E 012°08'0 0.0
2016-Aug-12 22:26N 54°06' E 012°08'0 0.0
2016-Aug-12 21:29N 54°06' E 012°08'0 0.0
2016-Aug-12 19:29N 54°06' E 012°08'0 0.0
2016-Aug-12 18:26N 54°06' E 012°08'0 0.0
2016-Aug-12 17:11N 54°06' E 012°08'0 0.0
2016-Aug-12 13:14N 54°06' E 012°08'0 0.0
2016-Aug-12 12:29N 54°06' E 012°08'0 0.0
2016-Aug-12 11:20N 54°06' E 012°08'0 0.0
2016-Aug-12 10:32N 54°06' E 012°08'0 0.0
2016-Aug-12 09:32N 54°06' E 012°08'0 0.0
2016-Aug-12 06:32N 54°06' E 012°08'0 0.0
2016-Aug-12 05:26N 54°06' E 012°08'0 0.0
2016-Aug-12 03:32N 54°06' E 012°08'0 0.0
2016-Aug-12 02:32N 54°06' E 012°08'0 0.0
2016-Aug-12 01:32N 54°06' E 012°08'0 0.0
2016-Aug-11 18:14N 54°06' E 012°08'0 0.0
2016-Aug-11 17:29N 54°06' E 012°08'0 0.0
2016-Aug-11 16:11N 54°06' E 012°08'0 0.0
2016-Aug-11 15:14N 54°06' E 012°08'0 0.0
2016-Aug-11 14:17N 54°06' E 012°08'0 0.0
2016-Aug-11 13:29N 54°06' E 012°08'0 0.0
2016-Aug-11 11:17N 54°06' E 012°08'0 0.0
2016-Aug-11 10:32N 54°06' E 012°08'0 0.0
2016-Aug-11 04:08N 54°06' E 012°08'0 0.0
2016-Aug-11 02:08N 54°06' E 012°08'0 0.0
2016-Aug-10 20:32N 54°06' E 012°08'0 0.0
2016-Aug-10 19:32N 54°06' E 012°08'0 0.0
2016-Aug-10 15:08N 54°06' E 012°08'0 0.8
2016-Aug-10 14:32N 54°06' E 012°07'5 5.3
2016-Aug-10 13:33N 54°11' E 012°06'6 6.1
2016-Aug-10 12:33N 54°16' E 012°01'8 8.1
2016-Aug-10 11:34N 54°23' E 011°55'7 6.6
2016-Aug-10 10:34N 54°29' E 011°50'5 5.1
2016-Aug-10 09:34N 54°34' E 011°47'4 4.1
2016-Aug-10 08:34N 54°38' E 011°47'3 2.5
2016-Aug-10 07:31N 54°40' E 011°44'0 0.0
2016-Aug-10 06:22N 54°40' E 011°44'0 0.0
2016-Aug-10 03:04N 54°40' E 011°44'0 0.0
2016-Aug-10 01:10N 54°40' E 011°44'0 0.0
2016-Aug-09 22:23N 54°40' E 011°44'0 0.0
2016-Aug-09 21:10N 54°40' E 011°44'0 0.0
2016-Aug-09 20:28N 54°40' E 011°44'0 0.0
2016-Aug-09 19:28N 54°40' E 011°44'0 0.0
2016-Aug-09 17:28N 54°40' E 011°44'0 0.0
2016-Aug-09 16:19N 54°40' E 011°44'0 0.0
2016-Aug-09 13:33N 54°40' E 011°44'3 3.3
2016-Aug-09 12:33N 54°37' E 011°47'4 3.8
2016-Aug-09 11:34N 54°33' E 011°46'4 3.5
2016-Aug-09 10:33N 54°30' E 011°46'6 5.5
2016-Aug-09 09:33N 54°30' E 011°36'5 5.5
2016-Aug-09 08:34N 54°33' E 011°28'6 6.0
2016-Aug-09 07:34N 54°38' E 011°22'2 0.5
2016-Aug-09 04:31N 54°39' E 011°21'0 0.0
2016-Aug-09 03:31N 54°39' E 011°21'0 0.0
2016-Aug-09 02:31N 54°39' E 011°21'0 0.0
2016-Aug-09 01:31N 54°39' E 011°21'0 0.0
2016-Aug-09 00:31N 54°39' E 011°21'0 0.0
2016-Aug-08 23:31N 54°39' E 011°21'0 0.0
2016-Aug-08 22:31N 54°39' E 011°21'0 0.0
2016-Aug-08 21:31N 54°39' E 011°21'0 0.0
2016-Aug-08 20:31N 54°39' E 011°21'0 0.0
2016-Aug-08 19:28N 54°39' E 011°21'0 0.0
2016-Aug-08 18:31N 54°39' E 011°21'0 0.0
2016-Aug-08 17:31N 54°39' E 011°21'0 0.0
2016-Aug-08 16:31N 54°39' E 011°21'0 0.0
2016-Aug-08 15:31N 54°39' E 011°21'0 0.0
2016-Aug-08 14:31N 54°39' E 011°21'2 1.8
2016-Aug-08 13:34N 54°39' E 011°18'6 6.0
2016-Aug-08 12:34N 54°41' E 011°08'7 6.8
2016-Aug-08 11:34N 54°36' E 010°60'6 5.9
2016-Aug-08 10:33N 54°32' E 010°53'5 4.7
2016-Aug-08 09:34N 54°31' E 010°45'5 4.8
2016-Aug-08 08:33N 54°31' E 010°37'5 5.5
2016-Aug-08 07:33N 54°31' E 010°28'4 3.8
2016-Aug-08 06:33N 54°30' E 010°21'6 6.4
2016-Aug-08 05:34N 54°25' E 010°13'4 3.9
2016-Aug-08 04:32N 54°22' E 010°09'0 0.0
2016-Aug-08 03:32N 54°22' E 010°09'0 0.0
2016-Aug-08 02:26N 54°22' E 010°09'0 0.0
2016-Aug-08 01:32N 54°22' E 010°09'0 0.0
2016-Aug-08 00:32N 54°22' E 010°09'0 0.0
2016-Aug-07 23:32N 54°22' E 010°09'0 0.0
2016-Aug-07 22:32N 54°22' E 010°09'0 0.0
2016-Aug-07 21:29N 54°22' E 010°09'0 0.0
2016-Aug-07 20:32N 54°22' E 010°09'0 0.0
2016-Aug-07 19:32N 54°22' E 010°09'0 0.0
2016-Aug-07 18:32N 54°22' E 010°09'0 0.0
2016-Aug-07 17:32N 54°22' E 010°09'0 0.0
2016-Aug-07 16:32N 54°22' E 010°09'0 0.0
2016-Aug-07 15:29N 54°22' E 010°09'0 0.0
2016-Aug-07 14:32N 54°22' E 010°09'0 0.1
2016-Aug-07 13:34N 54°22' E 010°09'2 2.1
2016-Aug-07 12:33N 54°22' E 010°06'6 6.0
2016-Aug-07 11:33N 54°21' E 009°56'5 4.6
2016-Aug-07 10:34N 54°22' E 009°48'27 1.3
2016-Aug-06 14:09N 54°01' E 009°18'4 6.1
2016-Aug-06 13:33N 53°58' E 009°15'6 5.7
2016-Aug-06 12:33N 53°54' E 009°09'0 0.3
2016-Aug-06 11:33N 53°53' E 009°09'3 3.2
2016-Aug-06 10:33N 53°53' E 009°14'5 5.4
2016-Aug-06 09:33N 53°50' E 009°22'  
Track history (hours):
 
Tides and Currents Weather Stations Pressure Air Temp Water Temp Dewpoint Dewpoint Depression Visibility Wind Speed Wind Dir Waves Ship Positions

Dagmar Aaen

Last reported at 2016-Aug-16 09:10 UTC. Time now 2017-Mar-26 14:59 UTC.
Position N 54°49' E 010°13'.
Warning: this ship's position is months out of date.

Length 24 m; beam 4.8 m; draft 2.5 m.

Type: Sailing vessel. MMSI: 211249810.

Date/timePositionNaut miles runAvg speedWind from/ knotsBaromVisibWave heightAir tempDewpointWater temp
2016-Aug-16 09:10N 54°49' E 010°13'5 5.9
2016-Aug-16 08:23N 54°48' E 010°21'5 5.6
2016-Aug-16 07:33N 54°47' E 010°29'7 2.3
2016-Aug-16 04:33N 54°45' E 010°40'0 0.0
2016-Aug-16 03:33N 54°45' E 010°40'0 0.0
2016-Aug-16 02:33N 54°45' E 010°40'0 0.0
2016-Aug-16 01:33N 54°45' E 010°40'0 0.0
2016-Aug-16 00:33N 54°45' E 010°40'0 0.0
2016-Aug-15 23:33N 54°45' E 010°40'0 0.0
2016-Aug-15 22:33N 54°45' E 010°40'0 0.0
2016-Aug-15 21:33N 54°45' E 010°40'0 0.0
2016-Aug-15 20:33N 54°45' E 010°40'0 0.3
2016-Aug-15 19:34N 54°45' E 010°40'5 4.7
2016-Aug-15 18:33N 54°42' E 010°45'7 6.8
2016-Aug-15 17:33N 54°39' E 010°56'7 6.6
2016-Aug-15 16:33N 54°36' E 011°06'6 6.0
2016-Aug-15 15:33N 54°33' E 011°15'6 6.1
2016-Aug-15 14:33N 54°30' E 011°24'6 5.7
2016-Aug-15 13:33N 54°26' E 011°31'5 4.9
2016-Aug-15 12:33N 54°23' E 011°38'4 4.4
2016-Aug-15 11:33N 54°20' E 011°44'5 4.6
2016-Aug-15 10:33N 54°17' E 011°50'5 5.0
2016-Aug-15 09:33N 54°15' E 011°58'6 5.2
2016-Aug-15 08:28N 54°11' E 012°05'5 5.6
2016-Aug-15 07:33N 54°06' E 012°06'1 0.4
2016-Aug-15 04:26N 54°06' E 012°08'0 0.0
2016-Aug-15 03:26N 54°06' E 012°08'0 0.0
2016-Aug-15 02:29N 54°06' E 012°08'0 0.0
2016-Aug-15 01:32N 54°06' E 012°08'0 0.0
2016-Aug-14 22:32N 54°06' E 012°08'0 0.0
2016-Aug-14 21:29N 54°06' E 012°08'0 0.0
2016-Aug-14 20:29N 54°06' E 012°08'0 0.0
2016-Aug-14 19:17N 54°06' E 012°08'0 0.1
2016-Aug-14 16:33N 54°06' E 012°08'1 1.0
2016-Aug-14 15:33N 54°06' E 012°07'1 0.8
2016-Aug-14 14:32N 54°06' E 012°08'0 0.0
2016-Aug-14 13:29N 54°06' E 012°08'0 0.0
2016-Aug-14 11:11N 54°06' E 012°08'0 0.0
2016-Aug-14 10:32N 54°06' E 012°08'0 0.0
2016-Aug-14 08:23N 54°06' E 012°08'0 0.0
2016-Aug-14 07:11N 54°06' E 012°08'0 0.0
2016-Aug-14 04:32N 54°06' E 012°08'0 0.0
2016-Aug-14 01:17N 54°06' E 012°08'0 0.0
2016-Aug-13 23:05N 54°06' E 012°08'0 0.0
2016-Aug-13 22:20N 54°06' E 012°08'0 0.0
2016-Aug-13 20:14N 54°06' E 012°08'0 0.0
2016-Aug-13 19:32N 54°06' E 012°08'0 0.0
2016-Aug-13 18:29N 54°06' E 012°08'0 0.0
2016-Aug-13 17:32N 54°06' E 012°08'0 0.0
2016-Aug-13 13:32N 54°06' E 012°08'0 0.0
2016-Aug-13 12:23N 54°06' E 012°08'0 0.0
2016-Aug-13 09:29N 54°06' E 012°08'0 0.0
2016-Aug-13 08:17N 54°06' E 012°08'0 0.0
2016-Aug-13 06:14N 54°06' E 012°08'0 0.0
2016-Aug-13 05:26N 54°06' E 012°08'0 0.0
2016-Aug-13 03:08N 54°06' E 012°08'0 0.0
2016-Aug-13 02:26N 54°06' E 012°08'0 0.0
2016-Aug-13 00:17N 54°06' E 012°08'0 0.0
2016-Aug-12 22:26N 54°06' E 012°08'0 0.0
2016-Aug-12 21:29N 54°06' E 012°08'0 0.0
2016-Aug-12 19:29N 54°06' E 012°08'0 0.0
2016-Aug-12 18:26N 54°06' E 012°08'0 0.0
2016-Aug-12 17:11N 54°06' E 012°08'0 0.0
2016-Aug-12 13:14N 54°06' E 012°08'0 0.0
2016-Aug-12 12:29N 54°06' E 012°08'0 0.0
2016-Aug-12 11:20N 54°06' E 012°08'0 0.0
2016-Aug-12 10:32N 54°06' E 012°08'0 0.0
2016-Aug-12 09:32N 54°06' E 012°08'0 0.0
2016-Aug-12 06:32N 54°06' E 012°08'0 0.0
2016-Aug-12 05:26N 54°06' E 012°08'0 0.0
2016-Aug-12 03:32N 54°06' E 012°08'0 0.0
2016-Aug-12 02:32N 54°06' E 012°08'0 0.0
2016-Aug-12 01:32N 54°06' E 012°08'0 0.0
2016-Aug-11 18:14N 54°06' E 012°08'0 0.0
2016-Aug-11 17:29N 54°06' E 012°08'0 0.0
2016-Aug-11 16:11N 54°06' E 012°08'0 0.0
2016-Aug-11 15:14N 54°06' E 012°08'0 0.0
2016-Aug-11 14:17N 54°06' E 012°08'0 0.0
2016-Aug-11 13:29N 54°06' E 012°08'0 0.0
2016-Aug-11 11:17N 54°06' E 012°08'0 0.0
2016-Aug-11 10:32N 54°06' E 012°08'0 0.0
2016-Aug-11 04:08N 54°06' E 012°08'0 0.0
2016-Aug-11 02:08N 54°06' E 012°08'0 0.0
2016-Aug-10 20:32N 54°06' E 012°08'0 0.0
2016-Aug-10 19:32N 54°06' E 012°08'0 0.0
2016-Aug-10 15:08N 54°06' E 012°08'0 0.8
2016-Aug-10 14:32N 54°06' E 012°07'5 5.3
2016-Aug-10 13:33N 54°11' E 012°06'6 6.1
2016-Aug-10 12:33N 54°16' E 012°01'8 8.1
2016-Aug-10 11:34N 54°23' E 011°55'7 6.6
2016-Aug-10 10:34N 54°29' E 011°50'5 5.1
2016-Aug-10 09:34N 54°34' E 011°47'4 4.1
2016-Aug-10 08:34N 54°38' E 011°47'3 2.5
2016-Aug-10 07:31N 54°40' E 011°44'0 0.0
2016-Aug-10 06:22N 54°40' E 011°44'0 0.0
2016-Aug-10 03:04N 54°40' E 011°44'0 0.0
2016-Aug-10 01:10N 54°40' E 011°44'0 0.0
2016-Aug-09 22:23N 54°40' E 011°44'0 0.0
2016-Aug-09 21:10N 54°40' E 011°44'0 0.0
2016-Aug-09 20:28N 54°40' E 011°44'0 0.0
2016-Aug-09 19:28N 54°40' E 011°44'0 0.0
2016-Aug-09 17:28N 54°40' E 011°44'0 0.0
2016-Aug-09 16:19N 54°40' E 011°44'0 0.0
2016-Aug-09 13:33N 54°40' E 011°44'3 3.3
2016-Aug-09 12:33N 54°37' E 011°47'4 3.8
2016-Aug-09 11:34N 54°33' E 011°46'4 3.5
2016-Aug-09 10:33N 54°30' E 011°46'6 5.5
2016-Aug-09 09:33N 54°30' E 011°36'5 5.5
2016-Aug-09 08:34N 54°33' E 011°28'6 6.0
2016-Aug-09 07:34N 54°38' E 011°22'2 0.5
2016-Aug-09 04:31N 54°39' E 011°21'0 0.0
2016-Aug-09 03:31N 54°39' E 011°21'0 0.0
2016-Aug-09 02:31N 54°39' E 011°21'0 0.0
2016-Aug-09 01:31N 54°39' E 011°21'0 0.0
2016-Aug-09 00:31N 54°39' E 011°21'0 0.0
2016-Aug-08 23:31N 54°39' E 011°21'0 0.0
2016-Aug-08 22:31N 54°39' E 011°21'0 0.0
2016-Aug-08 21:31N 54°39' E 011°21'0 0.0
2016-Aug-08 20:31N 54°39' E 011°21'0 0.0
2016-Aug-08 19:28N 54°39' E 011°21'0 0.0
2016-Aug-08 18:31N 54°39' E 011°21'0 0.0
2016-Aug-08 17:31N 54°39' E 011°21'0 0.0
2016-Aug-08 16:31N 54°39' E 011°21'0 0.0
2016-Aug-08 15:31N 54°39' E 011°21'0 0.0
2016-Aug-08 14:31N 54°39' E 011°21'2 1.8
2016-Aug-08 13:34N 54°39' E 011°18'6 6.0
2016-Aug-08 12:34N 54°41' E 011°08'7 6.8
2016-Aug-08 11:34N 54°36' E 010°60'6 5.9
2016-Aug-08 10:33N 54°32' E 010°53'5 4.7
2016-Aug-08 09:34N 54°31' E 010°45'5 4.8
2016-Aug-08 08:33N 54°31' E 010°37'5 5.5
2016-Aug-08 07:33N 54°31' E 010°28'4 3.8
2016-Aug-08 06:33N 54°30' E 010°21'6 6.4
2016-Aug-08 05:34N 54°25' E 010°13'4 3.9
2016-Aug-08 04:32N 54°22' E 010°09'0 0.0
2016-Aug-08 03:32N 54°22' E 010°09'0 0.0
2016-Aug-08 02:26N 54°22' E 010°09'0 0.0
2016-Aug-08 01:32N 54°22' E 010°09'0 0.0
2016-Aug-08 00:32N 54°22' E 010°09'0 0.0
2016-Aug-07 23:32N 54°22' E 010°09'0 0.0
2016-Aug-07 22:32N 54°22' E 010°09'0 0.0
2016-Aug-07 21:29N 54°22' E 010°09'0 0.0
2016-Aug-07 20:32N 54°22' E 010°09'0 0.0
2016-Aug-07 19:32N 54°22' E 010°09'0 0.0
2016-Aug-07 18:32N 54°22' E 010°09'0 0.0
2016-Aug-07 17:32N 54°22' E 010°09'0 0.0
2016-Aug-07 16:32N 54°22' E 010°09'0 0.0
2016-Aug-07 15:29N 54°22' E 010°09'0 0.0
2016-Aug-07 14:32N 54°22' E 010°09'0 0.1
2016-Aug-07 13:34N 54°22' E 010°09'2 2.1
2016-Aug-07 12:33N 54°22' E 010°06'6 6.0
2016-Aug-07 11:33N 54°21' E 009°56'5 4.6
2016-Aug-07 10:34N 54°22' E 009°48'27 1.3
2016-Aug-06 14:09N 54°01' E 009°18'4 6.1
2016-Aug-06 13:33N 53°58' E 009°15'6 5.7
2016-Aug-06 12:33N 53°54' E 009°09'0 0.3
2016-Aug-06 11:33N 53°53' E 009°09'3 3.2
2016-Aug-06 10:33N 53°53' E 009°14'5 5.4
2016-Aug-06 09:33N 53°50' E 009°22'  

Dump ship's entire track history